Harrisburg, Oregon
Current Conditions -  °F | °C
As of 1:54 AM on Thursday 23 Oct 2014 (Local Time) from KEUG Reporting Station
Overcast Overcast  
Wind Chill: 57°   Ceiling: 8500
Heat Index: 57°   Visibility: 10mi
Dew Point: 54°   Wind: 12mph
Humidity: 89%   Direction: 210°SSW
Pressure: 29.8"   Gusts: NA
Location:  44.27°N, 123.17°W
Report Text: KEUG 230854Z AUTO 21010KT 10SM FEW039 OVC085 14/12 A2980 RMK AO2 CIG 048 RNW 34 SLP088 T01390122 58001
Loading
Personal Weather Stations






























Interactive Weather Map
Tropical Storm Tracking
New forecast layout! Learn more

10-Day Weather Forecast

Advertisements
Track Severe Weather on mobile